sensor_id;sensor_type;location;lat;lon;timestamp;pressure;altitude;pressure_sealevel;temperature;humidity
11038;BME280;5572;49.540;11.932;2023-03-21T00:00:28;96878.41;;;6.35;100.00
11038;BME280;5572;49.540;11.932;2023-03-21T00:02:55;96876.34;;;6.42;100.00
11038;BME280;5572;49.540;11.932;2023-03-21T00:05:22;96888.69;;;6.43;100.00
11038;BME280;5572;49.540;11.932;2023-03-21T00:07:48;96895.56;;;6.34;100.00
11038;BME280;5572;49.540;11.932;2023-03-21T00:10:17;96902.03;;;6.33;100.00
11038;BME280;5572;49.540;11.932;2023-03-21T00:12:44;96905.25;;;6.35;100.00
11038;BME280;5572;49.540;11.932;2023-03-21T00:15:19;96912.53;;;6.39;100.00
11038;BME280;5572;49.540;11.932;2023-03-21T00:17:46;96907.53;;;6.48;100.00
11038;BME280;5572;49.540;11.932;2023-03-21T00:20:15;96911.03;;;6.48;100.00
11038;BME280;5572;49.540;11.932;2023-03-21T00:22:42;96917.19;;;6.49;100.00
11038;BME280;5572;49.540;11.932;2023-03-21T00:25:09;96918.84;;;6.55;100.00
11038;BME280;5572;49.540;11.932;2023-03-21T00:27:37;96909.94;;;6.49;100.00
11038;BME280;5572;49.540;11.932;2023-03-21T00:30:05;96914.44;;;6.39;100.00
11038;BME280;5572;49.540;11.932;2023-03-21T00:32:31;96880.03;;;6.36;100.00
11038;BME280;5572;49.540;11.932;2023-03-21T00:34:58;96890.94;;;6.24;100.00
11038;BME280;5572;49.540;11.932;2023-03-21T00:37:24;96888.19;;;6.19;100.00
11038;BME280;5572;49.540;11.932;2023-03-21T00:39:52;96869.19;;;6.26;100.00
11038;BME280;5572;49.540;11.932;2023-03-21T00:42:19;96859.09;;;6.33;100.00
11038;BME280;5572;49.540;11.932;2023-03-21T00:44:47;96872.31;;;6.44;100.00
11038;BME280;5572;49.540;11.932;2023-03-21T00:47:13;96885.47;;;6.46;100.00
11038;BME280;5572;49.540;11.932;2023-03-21T00:49:41;96891.00;;;6.61;100.00
11038;BME280;5572;49.540;11.932;2023-03-21T00:52:09;96897.47;;;6.65;100.00
11038;BME280;5572;49.540;11.932;2023-03-21T00:54:36;96905.84;;;6.68;100.00
11038;BME280;5572;49.540;11.932;2023-03-21T00:57:15;96909.66;;;6.77;100.00
11038;BME280;5572;49.540;11.932;2023-03-21T00:59:50;96912.59;;;6.76;100.00
11038;BME280;5572;49.540;11.932;2023-03-21T01:02:16;96917.72;;;6.77;100.00
11038;BME280;5572;49.540;11.932;2023-03-21T01:04:51;96918.34;;;6.89;100.00
11038;BME280;5572;49.540;11.932;2023-03-21T01:07:24;96921.94;;;6.99;100.00
11038;BME280;5572;49.540;11.932;2023-03-21T01:09:55;96913.16;;;6.78;100.00
11038;BME280;5572;49.540;11.932;2023-03-21T01:12:21;96910.31;;;6.58;100.00
11038;BME280;5572;49.540;11.932;2023-03-21T01:14:49;96905.19;;;6.56;100.00
11038;BME280;5572;49.540;11.932;2023-03-21T01:17:16;96903.31;;;6.57;100.00
11038;BME280;5572;49.540;11.932;2023-03-21T01:19:42;96909.59;;;6.67;100.00
11038;BME280;5572;49.540;11.932;2023-03-21T01:22:09;96902.25;;;6.58;100.00
11038;BME280;5572;49.540;11.932;2023-03-21T01:24:36;96907.69;;;6.68;100.00
11038;BME280;5572;49.540;11.932;2023-03-21T01:27:06;96893.84;;;6.49;100.00
11038;BME280;5572;49.540;11.932;2023-03-21T05:53:24;97088.78;;;5.53;100.00
11038;BME280;5572;49.540;11.932;2023-03-21T05:55:50;97091.75;;;5.73;100.00
11038;BME280;5572;49.540;11.932;2023-03-21T05:58:17;97101.72;;;5.94;100.00
11038;BME280;5572;49.540;11.932;2023-03-21T06:00:44;97101.03;;;6.20;100.00
11038;BME280;5572;49.540;11.932;2023-03-21T06:03:11;97110.22;;;6.45;100.00
11038;BME280;5572;49.540;11.932;2023-03-21T06:05:37;97125.41;;;7.30;100.00
11038;BME280;5572;49.540;11.932;2023-03-21T06:08:04;97159.13;;;8.10;100.00
11038;BME280;5572;49.540;11.932;2023-03-21T06:10:32;97224.09;;;10.42;100.00
11038;BME280;5572;49.540;11.932;2023-03-21T06:12:59;97170.88;;;9.88;100.00
11038;BME280;5572;49.540;11.932;2023-03-21T06:15:26;97178.19;;;11.20;100.00
11038;BME280;5572;49.540;11.932;2023-03-21T06:17:52;97130.91;;;9.70;100.00
11038;BME280;5572;49.540;11.932;2023-03-21T06:20:19;97062.00;;;8.78;100.00
11038;BME280;5572;49.540;11.932;2023-03-21T06:22:45;97035.28;;;8.61;100.00
11038;BME280;5572;49.540;11.932;2023-03-21T06:25:12;97029.38;;;10.04;100.00
11038;BME280;5572;49.540;11.932;2023-03-21T06:27:41;97079.00;;;13.41;100.00
11038;BME280;5572;49.540;11.932;2023-03-21T06:30:08;97013.34;;;14.29;100.00
11038;BME280;5572;49.540;11.932;2023-03-21T06:32:35;96879.25;;;14.77;100.00
11038;BME280;5572;49.540;11.932;2023-03-21T06:35:02;96728.44;;;15.00;100.00
11038;BME280;5572;49.540;11.932;2023-03-21T06:37:28;96246.22;;;14.14;100.00
11038;BME280;5572;49.540;11.932;2023-03-21T06:39:55;96070.16;;;15.72;100.00
11038;BME280;5572;49.540;11.932;2023-03-21T06:42:22;95974.72;;;14.78;100.00
11038;BME280;5572;49.540;11.932;2023-03-21T06:44:50;95983.56;;;11.36;100.00
11038;BME280;5572;49.540;11.932;2023-03-21T06:47:17;96000.84;;;9.57;100.00
11038;BME280;5572;49.540;11.932;2023-03-21T06:49:44;95991.50;;;9.81;100.00
11038;BME280;5572;49.540;11.932;2023-03-21T06:52:11;95989.50;;;9.73;100.00
11038;BME280;5572;49.540;11.932;2023-03-21T06:54:37;96012.38;;;9.76;100.00
11038;BME280;5572;49.540;11.932;2023-03-21T06:57:04;96021.56;;;9.75;100.00
11038;BME280;5572;49.540;11.932;2023-03-21T06:59:31;96041.00;;;9.58;100.00
11038;BME280;5572;49.540;11.932;2023-03-21T07:01:58;96043.44;;;9.60;100.00
11038;BME280;5572;49.540;11.932;2023-03-21T07:04:25;96055.38;;;9.86;100.00
11038;BME280;5572;49.540;11.932;2023-03-21T07:06:52;96075.84;;;9.73;100.00
11038;BME280;5572;49.540;11.932;2023-03-21T07:09:18;96089.47;;;9.82;100.00
11038;BME280;5572;49.540;11.932;2023-03-21T07:11:48;96103.69;;;9.55;100.00
11038;BME280;5572;49.540;11.932;2023-03-21T07:14:17;96119.91;;;9.69;100.00
11038;BME280;5572;49.540;11.932;2023-03-21T07:16:44;96133.91;;;9.71;100.00
11038;BME280;5572;49.540;11.932;2023-03-21T07:19:12;96139.75;;;9.59;100.00
11038;BME280;5572;49.540;11.932;2023-03-21T07:21:39;96149.66;;;9.64;100.00
11038;BME280;5572;49.540;11.932;2023-03-21T07:24:06;96170.25;;;9.60;100.00
11038;BME280;5572;49.540;11.932;2023-03-21T07:26:33;96165.69;;;9.74;100.00
11038;BME280;5572;49.540;11.932;2023-03-21T07:29:00;96184.59;;;9.74;100.00
11038;BME280;5572;49.540;11.932;2023-03-21T07:31:26;96201.19;;;9.67;100.00
11038;BME280;5572;49.540;11.932;2023-03-21T07:33:53;96223.25;;;9.51;100.00
11038;BME280;5572;49.540;11.932;2023-03-21T07:36:22;96218.78;;;9.97;100.00
11038;BME280;5572;49.540;11.932;2023-03-21T07:38:48;96238.16;;;10.04;100.00
11038;BME280;5572;49.540;11.932;2023-03-21T07:41:15;96245.22;;;10.50;100.00
11038;BME280;5572;49.540;11.932;2023-03-21T07:43:41;96261.44;;;10.82;100.00
11038;BME280;5572;49.540;11.932;2023-03-21T07:46:08;96270.19;;;11.19;100.00
11038;BME280;5572;49.540;11.932;2023-03-21T07:48:34;96299.81;;;10.97;100.00
11038;BME280;5572;49.540;11.932;2023-03-21T07:51:01;96328.47;;;10.66;100.00
11038;BME280;5572;49.540;11.932;2023-03-21T07:53:29;96335.97;;;10.88;100.00
11038;BME280;5572;49.540;11.932;2023-03-21T07:55:55;96338.38;;;11.03;100.00
11038;BME280;5572;49.540;11.932;2023-03-21T07:58:22;96361.72;;;10.99;100.00
11038;BME280;5572;49.540;11.932;2023-03-21T08:00:51;96373.72;;;11.24;100.00
11038;BME280;5572;49.540;11.932;2023-03-21T08:03:18;96390.34;;;11.63;100.00
11038;BME280;5572;49.540;11.932;2023-03-21T08:05:45;96399.66;;;11.98;100.00
11038;BME280;5572;49.540;11.932;2023-03-21T08:08:11;96411.78;;;12.40;100.00
11038;BME280;5572;49.540;11.932;2023-03-21T08:10:41;96461.69;;;11.54;100.00
11038;BME280;5572;49.540;11.932;2023-03-21T08:13:07;96453.34;;;11.96;100.00
11038;BME280;5572;49.540;11.932;2023-03-21T08:15:34;96500.97;;;11.01;100.00
11038;BME280;5572;49.540;11.932;2023-03-21T08:18:02;96509.31;;;11.55;100.00
11038;BME280;5572;49.540;11.932;2023-03-21T08:20:28;96505.50;;;11.88;100.00
11038;BME280;5572;49.540;11.932;2023-03-21T08:22:55;96481.63;;;12.70;100.00
11038;BME280;5572;49.540;11.932;2023-03-21T08:25:22;96487.94;;;12.66;100.00
11038;BME280;5572;49.540;11.932;2023-03-21T08:27:50;96504.03;;;12.35;100.00
11038;BME280;5572;49.540;11.932;2023-03-21T08:30:18;96514.56;;;12.23;100.00
11038;BME280;5572;49.540;11.932;2023-03-21T08:32:45;96521.31;;;12.26;100.00
11038;BME280;5572;49.540;11.932;2023-03-21T08:35:13;96557.53;;;12.30;100.00
11038;BME280;5572;49.540;11.932;2023-03-21T08:37:40;96553.31;;;12.37;100.00
11038;BME280;5572;49.540;11.932;2023-03-21T08:40:09;96577.16;;;11.95;100.00
11038;BME280;5572;49.540;11.932;2023-03-21T08:42:37;96588.84;;;12.22;100.00
11038;BME280;5572;49.540;11.932;2023-03-21T08:45:08;96551.19;;;12.88;100.00
11038;BME280;5572;49.540;11.932;2023-03-21T08:47:34;96579.25;;;12.97;100.00
11038;BME280;5572;49.540;11.932;2023-03-21T08:50:01;96588.56;;;12.64;100.00
11038;BME280;5572;49.540;11.932;2023-03-21T08:52:30;96605.53;;;12.43;100.00
11038;BME280;5572;49.540;11.932;2023-03-21T08:54:57;96578.72;;;13.22;100.00
11038;BME280;5572;49.540;11.932;2023-03-21T08:57:24;96614.38;;;12.75;100.00
11038;BME280;5572;49.540;11.932;2023-03-21T08:59:50;96630.06;;;12.51;100.00
11038;BME280;5572;49.540;11.932;2023-03-21T09:02:18;96711.84;;;11.71;100.00
11038;BME280;5572;49.540;11.932;2023-03-21T09:04:45;96677.88;;;12.74;100.00
11038;BME280;5572;49.540;11.932;2023-03-21T09:07:11;96704.63;;;12.49;100.00
11038;BME280;5572;49.540;11.932;2023-03-21T09:09:39;96695.28;;;12.87;100.00
11038;BME280;5572;49.540;11.932;2023-03-21T09:12:06;96682.41;;;13.59;100.00
11038;BME280;5572;49.540;11.932;2023-03-21T09:14:32;96678.00;;;13.23;100.00
11038;BME280;5572;49.540;11.932;2023-03-21T09:17:00;96687.75;;;13.51;100.00
11038;BME280;5572;49.540;11.932;2023-03-21T09:19:28;96677.38;;;13.53;100.00
11038;BME280;5572;49.540;11.932;2023-03-21T09:21:55;96743.16;;;12.32;100.00
11038;BME280;5572;49.540;11.932;2023-03-21T09:24:22;96735.44;;;13.30;100.00
11038;BME280;5572;49.540;11.932;2023-03-21T09:26:49;96713.56;;;13.75;100.00
11038;BME280;5572;49.540;11.932;2023-03-21T09:29:15;96756.44;;;12.66;100.00
11038;BME280;5572;49.540;11.932;2023-03-21T09:31:43;96717.72;;;13.94;100.00
11038;BME280;5572;49.540;11.932;2023-03-21T09:34:10;96711.22;;;13.82;100.00
11038;BME280;5572;49.540;11.932;2023-03-21T09:36:41;96703.22;;;13.50;100.00
11038;BME280;5572;49.540;11.932;2023-03-21T09:39:08;96732.88;;;13.73;100.00
11038;BME280;5572;49.540;11.932;2023-03-21T09:41:44;96678.66;;;14.04;100.00
11038;BME280;5572;49.540;11.932;2023-03-21T09:44:19;96694.56;;;13.75;100.00
11038;BME280;5572;49.540;11.932;2023-03-21T09:46:51;96716.81;;;14.34;100.00
11038;BME280;5572;49.540;11.932;2023-03-21T09:49:21;96664.13;;;15.21;100.00
11038;BME280;5572;49.540;11.932;2023-03-21T09:51:53;96671.13;;;15.05;100.00
11038;BME280;5572;49.540;11.932;2023-03-21T09:54:21;96657.84;;;15.59;100.00
11038;BME280;5572;49.540;11.932;2023-03-21T09:56:51;96627.69;;;15.48;100.00
11038;BME280;5572;49.540;11.932;2023-03-21T09:59:20;96669.03;;;15.02;100.00
11038;BME280;5572;49.540;11.932;2023-03-21T10:01:47;96668.38;;;14.01;100.00
11038;BME280;5572;49.540;11.932;2023-03-21T10:04:14;96605.72;;;14.88;100.00
11038;BME280;5572;49.540;11.932;2023-03-21T10:06:48;96602.13;;;15.10;100.00
11038;BME280;5572;49.540;11.932;2023-03-21T10:09:20;96569.63;;;15.22;100.00
11038;BME280;5572;49.540;11.932;2023-03-21T10:11:49;96590.19;;;15.45;100.00
11038;BME280;5572;49.540;11.932;2023-03-21T10:14:19;96617.81;;;14.35;100.00
11038;BME280;5572;49.540;11.932;2023-03-21T10:16:47;96738.94;;;13.44;100.00
11038;BME280;5572;49.540;11.932;2023-03-21T10:19:16;96640.56;;;15.17;100.00
11038;BME280;5572;49.540;11.932;2023-03-21T10:21:45;96611.16;;;14.88;100.00
11038;BME280;5572;49.540;11.932;2023-03-21T10:24:13;96614.09;;;15.00;100.00
11038;BME280;5572;49.540;11.932;2023-03-21T10:26:43;96598.69;;;15.43;100.00
11038;BME280;5572;49.540;11.932;2023-03-21T10:29:11;96607.50;;;15.32;100.00
11038;BME280;5572;49.540;11.932;2023-03-21T10:31:40;96581.00;;;15.15;100.00
11038;BME280;5572;49.540;11.932;2023-03-21T10:34:12;96610.28;;;15.18;100.00
11038;BME280;5572;49.540;11.932;2023-03-21T10:36:41;96570.00;;;15.96;100.00
11038;BME280;5572;49.540;11.932;2023-03-21T10:39:17;96582.69;;;15.67;100.00
11038;BME280;5572;49.540;11.932;2023-03-21T10:41:46;96633.59;;;15.33;100.00
11038;BME280;5572;49.540;11.932;2023-03-21T10:44:15;96557.97;;;15.38;100.00
11038;BME280;5572;49.540;11.932;2023-03-21T10:46:48;96572.88;;;15.49;100.00
11038;BME280;5572;49.540;11.932;2023-03-21T10:49:16;96565.84;;;15.48;100.00
11038;BME280;5572;49.540;11.932;2023-03-21T10:51:43;96530.59;;;16.39;100.00
11038;BME280;5572;49.540;11.932;2023-03-21T10:54:13;96502.41;;;16.19;100.00
11038;BME280;5572;49.540;11.932;2023-03-21T10:56:43;96518.34;;;16.00;100.00
11038;BME280;5572;49.540;11.932;2023-03-21T10:59:16;96496.91;;;15.81;100.00
11038;BME280;5572;49.540;11.932;2023-03-21T11:01:45;96483.72;;;15.92;100.00
11038;BME280;5572;49.540;11.932;2023-03-21T11:04:15;96515.19;;;15.64;100.00
11038;BME280;5572;49.540;11.932;2023-03-21T11:06:43;96473.16;;;16.36;100.00
11038;BME280;5572;49.540;11.932;2023-03-21T11:09:14;96441.16;;;16.53;100.00
11038;BME280;5572;49.540;11.932;2023-03-21T11:11:42;96497.44;;;16.21;100.00
11038;BME280;5572;49.540;11.932;2023-03-21T11:14:27;96467.38;;;15.92;100.00
11038;BME280;5572;49.540;11.932;2023-03-21T11:16:57;96459.13;;;16.09;100.00
11038;BME280;5572;49.540;11.932;2023-03-21T11:19:29;96410.28;;;16.24;100.00
11038;BME280;5572;49.540;11.932;2023-03-21T11:21:56;96400.38;;;16.98;100.00
11038;BME280;5572;49.540;11.932;2023-03-21T11:24:27;96394.53;;;16.38;100.00
11038;BME280;5572;49.540;11.932;2023-03-21T11:26:54;96405.19;;;16.51;100.00
11038;BME280;5572;49.540;11.932;2023-03-21T11:29:26;96394.09;;;16.56;100.00
11038;BME280;5572;49.540;11.932;2023-03-21T11:31:56;96404.66;;;16.29;100.00
11038;BME280;5572;49.540;11.932;2023-03-21T11:34:27;96409.50;;;15.86;100.00
11038;BME280;5572;49.540;11.932;2023-03-21T11:36:57;96400.38;;;16.20;100.00
11038;BME280;5572;49.540;11.932;2023-03-21T11:39:32;96422.69;;;15.76;100.00
11038;BME280;5572;49.540;11.932;2023-03-21T11:41:59;96375.09;;;16.39;100.00
11038;BME280;5572;49.540;11.932;2023-03-21T11:44:30;96363.75;;;16.29;100.00
11038;BME280;5572;49.540;11.932;2023-03-21T11:46:57;96366.13;;;16.59;100.00
11038;BME280;5572;49.540;11.932;2023-03-21T11:49:24;96389.94;;;16.30;100.00
11038;BME280;5572;49.540;11.932;2023-03-21T11:54:45;96345.03;;;16.48;100.00
11038;BME280;5572;49.540;11.932;2023-03-21T11:57:18;96375.94;;;16.60;100.00
11038;BME280;5572;49.540;11.932;2023-03-21T11:59:55;96328.13;;;16.95;100.00
11038;BME280;5572;49.540;11.932;2023-03-21T12:02:35;96277.28;;;17.03;100.00
11038;BME280;5572;49.540;11.932;2023-03-21T12:05:09;96304.56;;;17.03;100.00
11038;BME280;5572;49.540;11.932;2023-03-21T12:07:46;96271.50;;;16.84;100.00
11038;BME280;5572;49.540;11.932;2023-03-21T12:10:38;96279.56;;;17.01;100.00
11038;BME280;5572;49.540;11.932;2023-03-21T12:13:17;96253.63;;;17.51;100.00
11038;BME280;5572;49.540;11.932;2023-03-21T12:15:55;96294.38;;;16.79;100.00
11038;BME280;5572;49.540;11.932;2023-03-21T12:18:28;96316.44;;;17.07;100.00
11038;BME280;5572;49.540;11.932;2023-03-21T12:21:04;96282.19;;;17.29;100.00
11038;BME280;5572;49.540;11.932;2023-03-21T12:23:43;96287.09;;;17.16;100.00
11038;BME280;5572;49.540;11.932;2023-03-21T12:26:20;96317.41;;;17.23;100.00
11038;BME280;5572;49.540;11.932;2023-03-21T12:28:51;96307.78;;;17.05;100.00
11038;BME280;5572;49.540;11.932;2023-03-21T12:31:27;96326.53;;;16.94;100.00
11038;BME280;5572;49.540;11.932;2023-03-21T12:34:03;96295.22;;;17.24;100.00
11038;BME280;5572;49.540;11.932;2023-03-21T12:36:45;96295.06;;;17.41;100.00
11038;BME280;5572;49.540;11.932;2023-03-21T12:39:20;96305.16;;;17.28;100.00
11038;BME280;5572;49.540;11.932;2023-03-21T12:41:56;96307.47;;;17.18;100.00
11038;BME280;5572;49.540;11.932;2023-03-21T12:44:28;96295.16;;;17.32;100.00
11038;BME280;5572;49.540;11.932;2023-03-21T12:47:00;96294.31;;;17.76;100.00
11038;BME280;5572;49.540;11.932;2023-03-21T12:49:28;96242.59;;;17.59;100.00
11038;BME280;5572;49.540;11.932;2023-03-21T12:52:00;96295.53;;;17.23;100.00
11038;BME280;5572;49.540;11.932;2023-03-21T12:54:29;96278.09;;;17.35;100.00
11038;BME280;5572;49.540;11.932;2023-03-21T12:57:00;96280.06;;;17.59;100.00
11038;BME280;5572;49.540;11.932;2023-03-21T12:59:31;96265.63;;;17.70;100.00
11038;BME280;5572;49.540;11.932;2023-03-21T13:02:13;96237.56;;;17.97;100.00
11038;BME280;5572;49.540;11.932;2023-03-21T13:04:43;96219.91;;;17.47;100.00
11038;BME280;5572;49.540;11.932;2023-03-21T13:07:15;96177.88;;;17.63;100.00
11038;BME280;5572;49.540;11.932;2023-03-21T13:09:44;96207.16;;;17.51;100.00
11038;BME280;5572;49.540;11.932;2023-03-21T13:12:27;96138.34;;;17.73;100.00
11038;BME280;5572;49.540;11.932;2023-03-21T13:15:11;96149.59;;;17.83;100.00
11038;BME280;5572;49.540;11.932;2023-03-21T13:17:48;96173.06;;;17.84;100.00
11038;BME280;5572;49.540;11.932;2023-03-21T13:20:18;96138.91;;;17.90;100.00
11038;BME280;5572;49.540;11.932;2023-03-21T13:22:47;96197.31;;;17.14;100.00
11038;BME280;5572;49.540;11.932;2023-03-21T13:25:15;96122.06;;;18.15;100.00
11038;BME280;5572;49.540;11.932;2023-03-21T13:27:42;96126.38;;;17.77;100.00
11038;BME280;5572;49.540;11.932;2023-03-21T13:30:17;96168.22;;;17.66;100.00
11038;BME280;5572;49.540;11.932;2023-03-21T13:32:47;96149.94;;;17.94;100.00
11038;BME280;5572;49.540;11.932;2023-03-21T13:35:15;96167.41;;;17.77;100.00
11038;BME280;5572;49.540;11.932;2023-03-21T13:37:47;96212.28;;;17.64;100.00
11038;BME280;5572;49.540;11.932;2023-03-21T13:40:20;96206.72;;;17.73;100.00
11038;BME280;5572;49.540;11.932;2023-03-21T13:42:51;96186.22;;;17.43;100.00
11038;BME280;5572;49.540;11.932;2023-03-21T13:45:26;96216.75;;;17.45;100.00
11038;BME280;5572;49.540;11.932;2023-03-21T13:47:55;96226.97;;;17.72;100.00
11038;BME280;5572;49.540;11.932;2023-03-21T13:50:27;96168.13;;;18.25;100.00
11038;BME280;5572;49.540;11.932;2023-03-21T13:53:23;96197.78;;;18.00;100.00
11038;BME280;5572;49.540;11.932;2023-03-21T13:55:59;96164.00;;;17.80;100.00
11038;BME280;5572;49.540;11.932;2023-03-21T13:58:35;96164.09;;;17.48;100.00
11038;BME280;5572;49.540;11.932;2023-03-21T14:01:24;96208.31;;;17.86;100.00
11038;BME280;5572;49.540;11.932;2023-03-21T14:03:58;96230.28;;;17.77;100.00
11038;BME280;5572;49.540;11.932;2023-03-21T14:06:29;96210.13;;;17.70;100.00
11038;BME280;5572;49.540;11.932;2023-03-21T14:08:57;96209.53;;;17.88;100.00
11038;BME280;5572;49.540;11.932;2023-03-21T14:11:23;96197.38;;;17.50;100.00
11038;BME280;5572;49.540;11.932;2023-03-21T14:13:52;96203.75;;;17.42;100.00
11038;BME280;5572;49.540;11.932;2023-03-21T14:16:19;96203.31;;;17.64;100.00
11038;BME280;5572;49.540;11.932;2023-03-21T14:18:51;96231.06;;;17.78;100.00
11038;BME280;5572;49.540;11.932;2023-03-21T14:21:20;96286.06;;;17.08;100.00
11038;BME280;5572;49.540;11.932;2023-03-21T14:23:54;96267.72;;;17.41;100.00
11038;BME280;5572;49.540;11.932;2023-03-21T14:26:21;96247.00;;;17.40;100.00
11038;BME280;5572;49.540;11.932;2023-03-21T14:28:50;96278.44;;;17.02;100.00
11038;BME280;5572;49.540;11.932;2023-03-21T14:31:17;96317.22;;;17.07;100.00
11038;BME280;5572;49.540;11.932;2023-03-21T14:33:45;96314.56;;;17.51;100.00
11038;BME280;5572;49.540;11.932;2023-03-21T14:36:14;96273.31;;;17.44;100.00
11038;BME280;5572;49.540;11.932;2023-03-21T14:38:53;96300.34;;;16.93;100.00
11038;BME280;5572;49.540;11.932;2023-03-21T14:41:20;96299.72;;;17.28;100.00
11038;BME280;5572;49.540;11.932;2023-03-21T14:44:00;96296.00;;;17.24;100.00
11038;BME280;5572;49.540;11.932;2023-03-21T14:46:26;96330.88;;;17.07;100.00
11038;BME280;5572;49.540;11.932;2023-03-21T14:48:53;96349.09;;;16.83;100.00
11038;BME280;5572;49.540;11.932;2023-03-21T14:51:19;96350.94;;;17.31;100.00
11038;BME280;5572;49.540;11.932;2023-03-21T14:53:48;96345.16;;;16.92;100.00
11038;BME280;5572;49.540;11.932;2023-03-21T14:56:15;96363.75;;;16.78;100.00
11038;BME280;5572;49.540;11.932;2023-03-21T14:58:44;96362.28;;;17.01;100.00
11038;BME280;5572;49.540;11.932;2023-03-21T15:01:13;96383.47;;;17.04;100.00
11038;BME280;5572;49.540;11.932;2023-03-21T15:03:43;96339.59;;;17.41;100.00
11038;BME280;5572;49.540;11.932;2023-03-21T15:06:10;96384.84;;;16.69;100.00
11038;BME280;5572;49.540;11.932;2023-03-21T15:08:38;96381.63;;;16.96;100.00
11038;BME280;5572;49.540;11.932;2023-03-21T15:11:10;96415.94;;;16.97;100.00
11038;BME280;5572;49.540;11.932;2023-03-21T15:13:44;96395.50;;;16.62;100.00
11038;BME280;5572;49.540;11.932;2023-03-21T15:16:14;96399.78;;;16.92;100.00
11038;BME280;5572;49.540;11.932;2023-03-21T15:18:41;96361.75;;;16.87;100.00
11038;BME280;5572;49.540;11.932;2023-03-21T15:21:10;96400.94;;;17.12;100.00
11038;BME280;5572;49.540;11.932;2023-03-21T15:23:40;96414.44;;;16.88;100.00
11038;BME280;5572;49.540;11.932;2023-03-21T15:26:12;96433.09;;;16.57;100.00
11038;BME280;5572;49.540;11.932;2023-03-21T15:28:40;96440.63;;;16.60;100.00
11038;BME280;5572;49.540;11.932;2023-03-21T15:31:12;96428.50;;;16.49;100.00
11038;BME280;5572;49.540;11.932;2023-03-21T15:33:39;96431.13;;;16.66;100.00
11038;BME280;5572;49.540;11.932;2023-03-21T15:36:08;96410.88;;;16.67;100.00
11038;BME280;5572;49.540;11.932;2023-03-21T15:38:37;96416.16;;;16.43;100.00
11038;BME280;5572;49.540;11.932;2023-03-21T15:41:16;96467.91;;;16.31;100.00
11038;BME280;5572;49.540;11.932;2023-03-21T15:43:54;96476.84;;;16.40;100.00
11038;BME280;5572;49.540;11.932;2023-03-21T15:46:31;96470.16;;;16.12;100.00
11038;BME280;5572;49.540;11.932;2023-03-21T15:49:17;96469.72;;;16.10;100.00
11038;BME280;5572;49.540;11.932;2023-03-21T15:51:45;96503.72;;;16.13;100.00
11038;BME280;5572;49.540;11.932;2023-03-21T15:54:15;96496.53;;;16.00;100.00
11038;BME280;5572;49.540;11.932;2023-03-21T15:56:45;96491.75;;;15.97;100.00
11038;BME280;5572;49.540;11.932;2023-03-21T15:59:19;96488.53;;;15.86;100.00
11038;BME280;5572;49.540;11.932;2023-03-21T16:01:50;96514.06;;;15.82;100.00
11038;BME280;5572;49.540;11.932;2023-03-21T16:04:16;96518.06;;;15.67;100.00
11038;BME280;5572;49.540;11.932;2023-03-21T16:06:50;96547.41;;;15.70;100.00
11038;BME280;5572;49.540;11.932;2023-03-21T16:09:17;96559.59;;;15.56;100.00
11038;BME280;5572;49.540;11.932;2023-03-21T16:11:49;96554.47;;;15.63;100.00
11038;BME280;5572;49.540;11.932;2023-03-21T16:14:15;96572.13;;;15.57;100.00
11038;BME280;5572;49.540;11.932;2023-03-21T16:16:42;96551.56;;;15.51;100.00
11038;BME280;5572;49.540;11.932;2023-03-21T16:19:09;96562.81;;;15.50;100.00
11038;BME280;5572;49.540;11.932;2023-03-21T16:21:36;96581.06;;;15.32;100.00
11038;BME280;5572;49.540;11.932;2023-03-21T16:24:04;96591.31;;;15.35;100.00
11038;BME280;5572;49.540;11.932;2023-03-21T16:26:31;96607.28;;;15.20;100.00
11038;BME280;5572;49.540;11.932;2023-03-21T16:29:00;96582.34;;;15.26;100.00
11038;BME280;5572;49.540;11.932;2023-03-21T16:31:27;96581.28;;;15.14;100.00
11038;BME280;5572;49.540;11.932;2023-03-21T16:33:54;96610.91;;;15.07;100.00
11038;BME280;5572;49.540;11.932;2023-03-21T16:36:22;96622.31;;;15.09;100.00
11038;BME280;5572;49.540;11.932;2023-03-21T16:38:50;96649.75;;;14.90;100.00
11038;BME280;5572;49.540;11.932;2023-03-21T16:41:17;96650.53;;;14.82;100.00
11038;BME280;5572;49.540;11.932;2023-03-21T16:43:43;96656.69;;;14.96;100.00
11038;BME280;5572;49.540;11.932;2023-03-21T16:46:16;96645.59;;;14.84;100.00
11038;BME280;5572;49.540;11.932;2023-03-21T16:48:44;96678.50;;;14.74;100.00
11038;BME280;5572;49.540;11.932;2023-03-21T16:51:12;96678.97;;;14.68;100.00
11038;BME280;5572;49.540;11.932;2023-03-21T16:53:39;96697.66;;;14.61;100.00
11038;BME280;5572;49.540;11.932;2023-03-21T16:56:07;96704.50;;;14.59;100.00
11038;BME280;5572;49.540;11.932;2023-03-21T16:58:36;96729.88;;;14.46;100.00
11038;BME280;5572;49.540;11.932;2023-03-21T17:01:03;96766.31;;;14.23;100.00
11038;BME280;5572;49.540;11.932;2023-03-21T17:03:30;96787.88;;;14.06;100.00
11038;BME280;5572;49.540;11.932;2023-03-21T17:05:58;96783.38;;;14.01;100.00
11038;BME280;5572;49.540;11.932;2023-03-21T17:08:25;96794.44;;;13.91;100.00
11038;BME280;5572;49.540;11.932;2023-03-21T17:10:53;96802.22;;;13.71;100.00
11038;BME280;5572;49.540;11.932;2023-03-21T17:13:19;96815.88;;;13.53;100.00
11038;BME280;5572;49.540;11.932;2023-03-21T17:15:46;96822.63;;;13.42;100.00
11038;BME280;5572;49.540;11.932;2023-03-21T17:18:12;96826.03;;;13.34;100.00
11038;BME280;5572;49.540;11.932;2023-03-21T17:20:40;96812.75;;;13.19;100.00
11038;BME280;5572;49.540;11.932;2023-03-21T17:23:07;96810.09;;;13.14;100.00
11038;BME280;5572;49.540;11.932;2023-03-21T17:25:34;96805.66;;;12.91;100.00
11038;BME280;5572;49.540;11.932;2023-03-21T17:28:00;96800.06;;;12.83;100.00
11038;BME280;5572;49.540;11.932;2023-03-21T17:30:28;96782.38;;;12.85;100.00